Time;durP1;ratioP1;P1;durP2;ratioP2;P2;SDS_P1;SDS_P2;PMS_P1;PMS_P2;Temp;Humidity;BMP_temperature;BMP_pressure;BME280_temperature;BME280_humidity;BME280_pressure;Samples;Min_cycle;Max_cycle;Signal;HPM_P1;HPM_P2
2023/08/23 00:00:40;;;;;;;5.55;4.90;;;;;;;23.09;56.52;100647.41;10404125;28;20062;-78
2023/08/23 00:05:45;;;;;;;5.05;4.20;;;;;;;23.06;56.53;100643.22;10390929;28;20060;-75
2023/08/23 00:10:55;;;;;;;7.47;4.05;;;;;;;23.05;56.83;100644.31;10401639;28;20054;-80
2023/08/23 00:15:56;;;;;;;5.25;4.55;;;;;;;23.03;56.70;100638.28;10407263;28;20050;-79
2023/08/23 00:20:57;;;;;;;5.30;4.45;;;;;;;23.00;56.99;100646.13;10403737;28;20117;-79
2023/08/23 00:25:59;;;;;;;6.60;4.18;;;;;;;22.90;57.32;100639.41;10406668;28;20042;-77
2023/08/23 00:31:00;;;;;;;5.00;4.30;;;;;;;22.81;57.43;100637.31;10412138;28;20045;-77
2023/08/23 00:36:02;;;;;;;9.18;5.13;;;;;;;22.63;57.84;100638.41;10406571;28;20065;-79
2023/08/23 00:41:03;;;;;;;7.32;4.70;;;;;;;22.58;58.28;100636.44;10404445;28;20053;-78
2023/08/23 00:46:05;;;;;;;7.47;5.10;;;;;;;22.58;58.13;100636.44;10403847;28;20189;-79
2023/08/23 00:51:09;;;;;;;6.72;5.00;;;;;;;22.54;58.13;100633.34;10402802;28;20120;-76
2023/08/23 00:56:10;;;;;;;5.60;5.07;;;;;;;;;;10402714;28;20358;-77
2023/08/23 01:01:12;;;;;;;8.95;5.75;;;;;;;22.45;58.44;100639.50;10405038;28;20049;-76
2023/08/23 01:06:25;;;;;;;6.97;5.97;;;;;;;22.42;58.50;100640.81;10406030;28;20148;-76
2023/08/23 01:11:39;;;;;;;6.40;5.18;;;;;;;22.29;58.80;100630.19;10408662;28;20063;-78
2023/08/23 01:16:46;;;;;;;6.72;5.28;;;;;;;22.27;58.88;100630.41;10410235;28;20052;-77
2023/08/23 01:21:50;;;;;;;;;;;;;;;22.19;58.41;100636.28;10410706;28;20058;-77
2023/08/23 01:26:51;;;;;;;10.77;4.70;;;;;;;22.14;58.95;100638.94;10413312;28;19920;-78
2023/08/23 01:32:00;;;;;;;5.72;5.03;;;;;;;21.96;59.57;100640.78;10426672;28;20097;-80
2023/08/23 01:37:04;;;;;;;6.13;5.20;;;;;;;21.93;60.01;100640.44;10428731;28;20068;-79
2023/08/23 01:42:06;;;;;;;11.57;5.63;;;;;;;21.94;59.87;100651.16;10426266;28;20042;-78
2023/08/23 01:47:07;;;;;;;7.50;4.93;;;;;;;21.90;60.19;100644.50;10434922;28;20060;-80
2023/08/23 01:52:11;;;;;;;9.55;5.68;;;;;;;21.84;60.38;100642.75;10432935;28;20054;-81
2023/08/23 01:57:12;;;;;;;6.32;5.35;;;;;;;21.78;60.51;100636.34;10433413;28;20046;-80
2023/08/23 02:02:14;;;;;;;7.90;5.43;;;;;;;21.72;60.58;100631.00;10439603;28;20054;-79
2023/08/23 02:07:15;;;;;;;9.23;5.40;;;;;;;21.66;60.88;100638.25;10441734;28;20038;-79
2023/08/23 02:12:17;;;;;;;7.70;5.32;;;;;;;21.56;60.85;100641.66;10433733;28;20041;-77
2023/08/23 02:17:18;;;;;;;11.20;6.47;;;;;;;21.50;61.19;100644.50;10445472;28;20045;-78
2023/08/23 02:22:21;;;;;;;6.38;5.35;;;;;;;21.48;60.92;100635.72;10425345;28;20045;-78
2023/08/23 02:27:22;;;;;;;7.30;5.97;;;;;;;21.43;61.48;100628.22;10430162;28;20050;-78
2023/08/23 02:32:25;;;;;;;9.98;5.95;;;;;;;21.37;61.46;100626.44;10426801;28;20065;-76
2023/08/23 02:37:26;;;;;;;8.20;6.18;;;;;;;21.30;61.46;100620.25;10434971;28;20045;-77
2023/08/23 02:42:27;;;;;;;6.32;5.68;;;;;;;21.24;61.90;100615.75;10433621;28;20041;-80
2023/08/23 02:47:29;;;;;;;8.30;6.57;;;;;;;21.20;61.93;100618.13;10447544;28;20033;-79
2023/08/23 02:52:30;;;;;;;8.57;6.55;;;;;;;21.04;62.11;100614.22;10442542;28;20420;-79
2023/08/23 02:57:32;;;;;;;9.73;6.70;;;;;;;20.99;62.17;100623.16;10440570;28;20049;-77
2023/08/23 03:02:33;;;;;;;8.93;6.68;;;;;;;20.93;62.53;100610.44;10447466;28;20115;-79
2023/08/23 03:07:35;;;;;;;10.45;7.50;;;;;;;20.92;62.81;100610.66;10444704;28;20030;-77
2023/08/23 03:12:36;;;;;;;9.63;6.40;;;;;;;20.90;62.47;100619.09;10437579;28;20045;-76
2023/08/23 03:17:38;;;;;;;10.77;7.53;;;;;;;20.87;62.56;100624.22;10442292;28;20068;-77
2023/08/23 03:22:40;;;;;;;8.82;6.75;;;;;;;20.82;62.92;100613.19;10443829;28;20037;-79
2023/08/23 03:27:42;;;;;;;11.10;7.22;;;;;;;20.77;62.88;100625.66;10412906;28;20342;-77
2023/08/23 03:32:43;;;;;;;8.25;7.40;;;;;;;20.72;62.74;100620.06;10406305;28;20376;-77
2023/08/23 03:37:45;;;;;;;7.95;7.05;;;;;;;20.66;62.96;100611.97;10407954;28;20096;-77
2023/08/23 03:42:47;;;;;;;13.05;7.90;;;;;;;20.58;63.71;100599.47;10404840;28;20048;-78
2023/08/23 03:47:49;;;;;;;10.43;7.82;;;;;;;20.55;63.76;100600.75;10408040;28;20050;-79
2023/08/23 03:52:51;;;;;;;7.72;7.03;;;;;;;20.50;63.50;100606.09;10413259;28;20071;-78
2023/08/23 03:57:52;;;;;;;13.77;8.90;;;;;;;20.46;63.81;100610.38;10408378;28;20081;-77
2023/08/23 04:02:54;;;;;;;10.68;8.27;;;;;;;20.41;64.07;100618.44;10406368;28;20052;-77
2023/08/23 04:07:55;;;;;;;9.85;7.43;;;;;;;20.35;64.06;100613.91;10403565;28;20069;-77
2023/08/23 04:12:57;;;;;;;14.40;8.82;;;;;;;20.25;64.37;100616.38;10404691;28;20068;-76
2023/08/23 04:17:58;;;;;;;10.95;8.55;;;;;;;20.18;64.60;100621.94;10405487;28;20111;-77
2023/08/23 04:23:00;;;;;;;12.30;8.05;;;;;;;20.20;64.62;100622.53;10404051;28;20054;-80
2023/08/23 04:28:01;;;;;;;11.02;8.70;;;;;;;20.15;64.67;100620.50;10400786;28;20293;-72
2023/08/23 04:33:03;;;;;;;8.63;7.75;;;;;;;20.19;64.39;100626.34;10405620;28;20346;-71
2023/08/23 04:38:09;;;;;;;11.32;9.02;;;;;;;20.21;64.39;100618.75;10400148;28;20053;-72
2023/08/23 04:43:11;;;;;;;8.57;7.82;;;;;;;20.19;64.54;100615.41;10400324;28;20048;-71
2023/08/23 04:48:13;;;;;;;9.75;8.38;;;;;;;20.21;64.56;100618.75;10399688;28;20069;-71
2023/08/23 04:53:14;;;;;;;16.20;9.73;;;;;;;20.14;64.90;100615.28;10406875;28;20249;-71
2023/08/23 04:58:16;;;;;;;9.95;8.95;;;;;;;20.15;64.50;100616.94;10404151;28;20053;-72
2023/08/23 05:03:17;;;;;;;12.02;8.60;;;;;;;20.13;64.98;100627.28;10407025;28;20057;-73
2023/08/23 05:08:19;;;;;;;8.55;7.43;;;;;;;20.16;64.91;100619.44;10405091;28;20356;-72
2023/08/23 05:13:21;;;;;;;10.38;8.38;;;;;;;20.23;65.07;100622.06;10403613;28;20061;-72
2023/08/23 05:18:23;;;;;;;12.20;8.77;;;;;;;20.29;64.78;100629.31;10395155;28;20108;-72
2023/08/23 05:23:26;;;;;;;9.68;7.53;;;;;;;20.38;65.05;100633.41;10402029;28;20057;-75
2023/08/23 05:28:27;;;;;;;9.13;7.22;;;;;;;20.47;65.14;100638.50;10404398;28;20277;-74
2023/08/23 05:33:29;;;;;;;9.30;7.47;;;;;;;20.58;65.01;100635.81;10406147;28;20263;-77
2023/08/23 05:38:33;;;;;;;10.68;7.63;;;;;;;20.69;64.66;100636.91;10400696;28;20045;-74
2023/08/23 05:43:34;;;;;;;10.82;7.00;;;;;;;20.79;64.38;100642.63;10401407;28;20049;-73
2023/08/23 05:48:36;;;;;;;9.10;7.30;;;;;;;20.87;64.55;100657.00;10400666;28;20069;-75
2023/08/23 05:53:37;;;;;;;9.63;7.40;;;;;;;21.01;64.60;100658.44;10401438;28;20048;-74
2023/08/23 05:58:38;;;;;;;13.68;7.90;;;;;;;21.06;64.35;100668.66;10402913;28;20064;-74
2023/08/23 06:03:40;;;;;;;10.05;7.25;;;;;;;21.16;64.56;100664.25;10404529;28;20415;-68
2023/08/23 06:08:41;;;;;;;11.45;6.72;;;;;;;21.30;64.64;100659.38;10397917;28;20045;-73
2023/08/23 06:13:43;;;;;;;11.55;6.82;;;;;;;21.44;64.16;100659.97;10396962;28;20053;-72
2023/08/23 06:18:44;;;;;;;9.32;7.20;;;;;;;21.58;63.84;100669.59;10407230;28;20041;-75
2023/08/23 06:23:46;;;;;;;9.32;6.68;;;;;;;21.74;63.83;100672.63;10406751;28;20068;-74
2023/08/23 06:28:47;;;;;;;9.65;6.82;;;;;;;21.92;63.57;100663.41;10406182;28;20054;-72
2023/08/23 06:33:49;;;;;;;8.65;6.50;;;;;;;22.08;63.22;100665.38;10404934;28;20128;-72
2023/08/23 06:38:50;;;;;;;9.48;6.78;;;;;;;22.27;63.39;100662.47;10400048;28;20051;-73
2023/08/23 06:43:58;;;;;;;6.07;5.47;;;;;;;22.48;63.04;100666.41;10401596;28;20056;-73
2023/08/23 06:49:00;;;;;;;8.43;6.07;;;;;;;22.68;62.85;100672.22;10401625;28;20382;-74
2023/08/23 06:54:02;;;;;;;10.57;6.10;;;;;;;22.86;62.57;100678.53;10408296;28;20056;-74
2023/08/23 06:59:03;;;;;;;9.45;6.30;;;;;;;23.01;62.37;100673.31;10410016;28;20118;-75
2023/08/23 07:04:04;;;;;;;8.30;6.45;;;;;;;23.19;61.83;100676.88;10405235;28;20057;-73
2023/08/23 07:09:06;;;;;;;10.48;5.72;;;;;;;23.38;61.22;100664.56;10406199;28;20052;-75
2023/08/23 07:14:09;;;;;;;10.05;5.60;;;;;;;23.55;61.04;100681.78;10411500;28;20059;-79
2023/08/23 07:19:10;;;;;;;10.05;5.28;;;;;;;23.69;60.77;100689.63;10408680;28;20117;-76
2023/08/23 07:24:11;;;;;;;8.23;4.53;;;;;;;23.90;59.98;100685.28;10409252;28;20045;-74
2023/08/23 07:29:16;;;;;;;9.60;5.45;;;;;;;24.12;59.21;100690.72;10407131;28;20360;-75
2023/08/23 07:34:17;;;;;;;5.32;4.53;;;;;;;24.33;58.62;100678.88;10403831;28;20057;-74
2023/08/23 07:39:19;;;;;;;7.28;4.10;;;;;;;24.50;57.63;100677.91;10405159;28;20055;-75
2023/08/23 07:44:20;;;;;;;10.10;4.82;;;;;;;24.67;57.24;100678.66;10400588;28;20369;-74
2023/08/23 07:49:24;;;;;;;10.02;4.00;;;;;;;24.73;57.10;100693.28;10407332;28;20073;-74
2023/08/23 07:54:25;;;;;;;6.68;3.97;;;;;;;24.92;56.67;100688.19;10415909;28;20029;-76
2023/08/23 07:59:27;;;;;;;9.02;4.05;;;;;;;25.11;55.77;100694.13;10405682;28;20081;-72
2023/08/23 08:04:29;;;;;;;5.13;3.47;;;;;;;25.26;55.28;100685.19;10405061;28;20049;-71
2023/08/23 08:09:31;;;;;;;6.05;3.63;;;;;;;25.44;55.27;100679.22;10408724;28;20385;-69
2023/08/23 08:14:32;;;;;;;7.47;3.95;;;;;;;25.53;55.15;100680.38;10400951;28;20105;-71
2023/08/23 08:19:34;;;;;;;4.43;3.42;;;;;;;25.66;54.38;100689.22;10406742;28;20117;-71
2023/08/23 08:24:36;;;;;;;4.72;3.45;;;;;;;25.81;54.21;100692.06;10400916;28;20292;-70
2023/08/23 08:29:38;;;;;;;9.10;3.88;;;;;;;25.96;53.91;100691.31;10404127;28;20045;-75
2023/08/23 08:34:39;;;;;;;5.53;3.20;;;;;;;26.03;53.61;100688.31;10402511;28;20049;-74
2023/08/23 08:39:41;;;;;;;9.23;2.85;;;;;;;26.24;53.08;100681.72;10406665;28;20409;-74
2023/08/23 08:44:44;;;;;;;7.90;3.10;;;;;;;26.44;52.40;100686.47;10402868;28;20052;-74
2023/08/23 08:49:45;;;;;;;8.15;3.75;;;;;;;26.47;52.40;100696.13;10404092;28;20060;-75
2023/08/23 08:54:51;;;;;;;5.97;3.85;;;;;;;26.63;51.66;100691.47;10416692;28;20062;-74
2023/08/23 08:59:53;;;;;;;7.90;3.40;;;;;;;26.89;51.11;100684.00;10407960;28;20402;-74
2023/08/23 09:04:55;;;;;;;6.95;2.90;;;;;;;27.07;50.50;100682.59;10402226;28;20053;-74
2023/08/23 09:09:57;;;;;;;7.28;3.42;;;;;;;27.24;49.84;100676.81;10400262;28;20081;-71
2023/08/23 09:15:04;;;;;;;10.27;3.85;;;;;;;27.40;48.83;100672.91;10397647;28;20037;-71
2023/08/23 09:20:07;;;;;;;5.70;3.53;;;;;;;27.60;48.58;100679.47;10402448;28;20045;-71
2023/08/23 09:25:09;;;;;;;6.07;3.50;;;;;;;27.62;47.64;100682.78;10397507;28;20037;-73
2023/08/23 09:30:11;;;;;;;5.25;2.20;;;;;;;27.79;47.91;100668.63;10398997;28;20115;-71
2023/08/23 09:35:15;;;;;;;5.00;1.83;;;;;;;28.03;47.15;100672.38;10402394;28;20048;-72
2023/08/23 09:40:22;;;;;;;5.88;2.00;;;;;;;28.18;47.15;100660.44;10400819;28;20083;-71
2023/08/23 09:45:23;;;;;;;4.03;1.67;;;;;;;28.36;46.57;100661.69;10402477;28;20571;-71
2023/08/23 09:50:25;;;;;;;5.07;2.13;;;;;;;28.57;45.78;100659.59;10397707;28;20042;-71
2023/08/23 09:55:28;;;;;;;4.20;2.15;;;;;;;28.65;44.96;100660.91;10415453;28;20037;-71
2023/08/23 10:00:30;;;;;;;2.95;1.90;;;;;;;28.74;45.54;100650.06;10397026;28;20065;-70
2023/08/23 10:05:34;;;;;;;5.15;2.08;;;;;;;28.99;44.71;100658.13;10403062;28;20057;-72
2023/08/23 10:10:37;;;;;;;7.18;1.70;;;;;;;29.09;44.65;100657.19;10401340;28;20390;-73
2023/08/23 10:15:39;;;;;;;2.58;1.20;;;;;;;29.34;43.62;100646.97;10402097;28;20049;-74
2023/08/23 10:20:41;;;;;;;5.85;1.45;;;;;;;29.55;43.39;100655.88;10439005;28;20072;-75
2023/08/23 10:25:47;;;;;;;1.80;1.20;;;;;;;29.84;42.72;100647.50;10437769;28;20622;-73
2023/08/23 10:30:52;;;;;;;4.28;1.23;;;;;;;30.13;42.44;100650.09;10448541;28;20292;-74
2023/08/23 10:36:04;;;;;;;7.25;1.73;;;;;;;30.45;41.85;100645.75;10446523;28;20262;-74
2023/08/23 10:41:16;;;;;;;3.75;1.58;;;;;;;30.78;41.19;100641.03;10442315;28;20051;-73
2023/08/23 10:46:21;;;;;;;4.40;1.20;;;;;;;31.28;40.50;100637.66;10449996;28;20038;-73
2023/08/23 10:51:22;;;;;;;5.32;1.30;;;;;;;31.61;39.97;100645.88;10457183;28;20041;-73
2023/08/23 10:56:24;;;;;;;4.28;1.40;;;;;;;31.94;39.11;100640.16;10449039;28;20105;-73
2023/08/23 11:01:25;;;;;;;6.28;1.60;;;;;;;32.30;38.24;100640.16;10440769;28;20345;-72
2023/08/23 11:06:27;;;;;;;3.75;1.08;;;;;;;32.73;38.05;100636.09;10448228;28;20113;-73
2023/08/23 11:11:29;;;;;;;7.15;1.50;;;;;;;33.15;37.20;100631.06;10446517;28;20121;-76
2023/08/23 11:16:30;;;;;;;5.70;1.25;;;;;;;33.32;36.47;100625.56;10446587;28;20037;-72
2023/08/23 11:21:32;;;;;;;8.25;2.95;;;;;;;33.17;37.44;100620.41;10444766;28;20053;-73
2023/08/23 11:26:37;;;;;;;3.35;1.30;;;;;;;33.35;35.99;100624.91;10446734;28;20065;-73
2023/08/23 11:31:38;;;;;;;9.18;1.40;;;;;;;33.31;36.37;100623.09;10444774;28;20104;-75
2023/08/23 11:36:40;;;;;;;1.40;1.00;;;;;;;33.44;36.54;100624.94;10453815;28;20037;-75
2023/08/23 11:41:42;;;;;;;6.63;1.13;;;;;;;33.43;36.06;100628.06;10443335;28;20041;-73
2023/08/23 11:46:43;;;;;;;7.07;1.40;;;;;;;32.92;35.84;100630.28;10445463;28;20104;-74
2023/08/23 11:51:49;;;;;;;4.03;1.00;;;;;;;32.58;36.86;100615.88;10446172;28;20075;-74
2023/08/23 11:56:52;;;;;;;5.90;1.08;;;;;;;32.63;36.23;100619.66;10444735;28;20302;-74
2023/08/23 12:01:54;;;;;;;5.55;1.60;;;;;;;32.68;37.00;100614.75;10451040;28;20040;-73
2023/08/23 12:06:56;;;;;;;2.40;1.27;;;;;;;33.13;36.02;100611.88;10449091;28;20048;-72
2023/08/23 12:11:59;;;;;;;6.15;1.10;;;;;;;33.34;35.56;100614.91;10446813;28;20072;-73
2023/08/23 12:17:00;;;;;;;1.98;1.10;;;;;;;33.65;34.66;100613.19;10444366;28;20095;-73
2023/08/23 12:22:03;;;;;;;2.88;1.00;;;;;;;33.56;34.26;100607.59;10447925;28;20053;-74
2023/08/23 12:27:04;;;;;;;6.18;1.38;;;;;;;33.07;34.73;100606.75;10443968;28;20040;-72
2023/08/23 12:32:09;;;;;;;5.10;1.20;;;;;;;33.49;34.40;100601.66;10445718;28;20075;-73
2023/08/23 12:37:11;;;;;;;2.20;1.10;;;;;;;33.70;34.14;100613.88;10448896;28;20060;-73
2023/08/23 12:42:15;;;;;;;2.53;0.98;;;;;;;33.73;34.38;100604.03;10446261;28;20071;-72
2023/08/23 12:47:17;;;;;;;4.57;1.40;;;;;;;33.67;34.35;100597.81;10445299;28;20053;-72
2023/08/23 12:52:18;;;;;;;2.78;1.10;;;;;;;33.28;33.64;100593.91;10441937;28;20075;-74
2023/08/23 12:57:20;;;;;;;3.53;1.80;;;;;;;33.79;34.47;100597.16;10446699;28;20049;-72
2023/08/23 13:02:21;;;;;;;2.85;1.30;;;;;;;33.95;33.18;100586.34;10443608;28;20050;-74
2023/08/23 13:07:22;;;;;;;2.22;1.02;;;;;;;34.28;33.65;100578.31;10444781;28;20053;-71
2023/08/23 13:12:24;;;;;;;2.83;0.90;;;;;;;34.41;33.38;100587.63;10443894;28;20045;-72
2023/08/23 13:17:25;;;;;;;4.07;1.80;;;;;;;34.61;32.98;100568.53;10443270;28;20059;-72
2023/08/23 13:22:27;;;;;;;4.35;1.52;;;;;;;34.44;33.33;100574.97;10440855;28;20048;-72
2023/08/23 13:27:28;;;;;;;1.25;0.98;;;;;;;34.47;33.15;100572.34;10443749;28;20041;-73
2023/08/23 13:32:29;;;;;;;3.50;1.42;;;;;;;34.11;33.25;100570.72;10437755;28;20129;-73
2023/08/23 13:37:33;;;;;;;2.53;0.85;;;;;;;34.06;33.44;100565.31;10443499;28;20029;-71
2023/08/23 13:42:34;;;;;;;5.82;1.42;;;;;;;33.82;33.41;100567.78;10448763;28;20052;-73
2023/08/23 13:47:40;;;;;;;4.22;1.00;;;;;;;33.93;33.38;100566.31;10402608;28;20053;-74
2023/08/23 13:52:42;;;;;;;2.80;0.88;;;;;;;34.06;33.56;100548.56;10400452;28;20401;-73
2023/08/23 13:57:43;;;;;;;3.63;0.80;;;;;;;34.08;31.92;100539.88;10397296;28;20494;-72
2023/08/23 14:02:45;;;;;;;3.40;0.90;;;;;;;33.78;32.71;100543.31;10410254;28;20061;-72
2023/08/23 14:07:47;;;;;;;3.72;0.57;;;;;;;33.77;31.57;100538.09;10409594;28;20041;-72
2023/08/23 14:12:49;;;;;;;4.50;1.58;;;;;;;34.75;31.34;100530.06;10410301;28;20056;-72
2023/08/23 14:17:50;;;;;;;5.28;0.90;;;;;;;36.42;29.19;100516.50;10417129;28;20049;-72
2023/08/23 14:22:52;;;;;;;2.67;0.60;;;;;;;37.62;27.55;100523.63;10412302;28;20079;-73
2023/08/23 14:27:54;;;;;;;3.00;1.08;;;;;;;39.46;25.79;100506.72;10413393;28;20108;-73
2023/08/23 14:32:55;;;;;;;2.50;0.70;;;;;;;40.57;24.09;100503.25;10407608;28;20065;-73
2023/08/23 14:37:56;;;;;;;0.80;0.50;;;;;;;40.44;23.57;100507.44;10407335;28;20052;-73
2023/08/23 14:42:58;;;;;;;5.32;0.43;;;;;;;40.70;22.72;100506.66;10409081;28;20045;-73
2023/08/23 14:47:59;;;;;;;0.30;0.25;;;;;;;40.05;22.41;100510.31;10415328;28;20053;-73
2023/08/23 14:53:01;;;;;;;2.83;0.30;;;;;;;39.00;22.66;100509.25;10467178;28;20036;-74
2023/08/23 14:58:03;;;;;;;0.30;0.20;;;;;;;37.61;23.42;100518.34;10463846;28;20052;-73
2023/08/23 15:03:04;;;;;;;1.98;0.20;;;;;;;37.02;23.11;100516.88;10452607;28;20389;-74
2023/08/23 15:08:07;;;;;;;0.35;0.20;;;;;;;37.31;22.84;100515.84;10472908;28;20045;-74
2023/08/23 15:13:12;;;;;;;4.32;0.47;;;;;;;37.48;22.67;100514.72;10466926;28;20056;-74
2023/08/23 15:18:14;;;;;;;2.70;0.30;;;;;;;38.20;22.17;100506.41;10471407;28;20053;-74
2023/08/23 15:23:15;;;;;;;1.55;0.20;;;;;;;38.02;21.92;100505.91;10467251;28;20048;-75
2023/08/23 15:28:17;;;;;;;2.00;0.82;;;;;;;37.29;22.08;100502.16;10469739;28;20046;-75
2023/08/23 15:33:18;;;;;;;0.90;0.40;;;;;;;37.58;21.37;100505.84;10470862;28;20057;-74
2023/08/23 15:38:20;;;;;;;1.55;0.20;;;;;;;37.50;20.98;100501.16;10469615;28;20049;-73
2023/08/23 15:43:21;;;;;;;0.63;0.30;;;;;;;37.41;21.15;100511.72;10472100;28;20053;-74
2023/08/23 15:48:23;;;;;;;0.85;0.20;;;;;;;37.28;20.88;100508.94;10471010;28;20045;-74
2023/08/23 15:53:24;;;;;;;2.03;0.30;;;;;;;36.54;21.03;100505.31;10470841;28;20037;-76
2023/08/23 15:58:26;;;;;;;3.58;0.40;;;;;;;36.88;20.89;100504.03;10470774;28;20087;-75
2023/08/23 16:03:27;;;;;;;0.82;0.40;;;;;;;37.20;20.65;100506.28;10471517;28;20045;-75
2023/08/23 16:08:29;;;;;;;1.45;0.43;;;;;;;37.18;21.26;100495.41;10476736;28;20045;-74
2023/08/23 16:13:30;;;;;;;2.22;0.50;;;;;;;37.31;20.53;100488.59;10471999;28;20065;-73
2023/08/23 16:18:32;;;;;;;2.40;0.50;;;;;;;37.36;20.55;100492.31;10473519;28;20049;-74
2023/08/23 16:23:34;;;;;;;3.28;0.60;;;;;;;37.66;21.21;100484.41;10464731;28;20045;-74
2023/08/23 16:28:39;;;;;;;1.10;0.50;;;;;;;37.75;20.51;100471.06;10465497;28;20048;-73
2023/08/23 16:33:41;;;;;;;4.90;0.50;;;;;;;37.18;20.74;100474.97;10464839;28;20120;-73
2023/08/23 16:38:42;;;;;;;2.80;0.40;;;;;;;37.01;20.81;100470.41;10472625;28;20065;-72
2023/08/23 16:43:44;;;;;;;1.73;0.85;;;;;;;37.20;20.50;100473.44;10468945;28;20053;-72
2023/08/23 16:48:48;;;;;;;1.30;0.50;;;;;;;36.98;20.61;100479.53;10467905;28;20052;-71
2023/08/23 16:53:49;;;;;;;1.23;0.40;;;;;;;36.90;21.17;100473.69;10422996;28;20242;-70
2023/08/23 16:58:52;;;;;;;1.02;0.40;;;;;;;36.56;21.82;100474.16;10426826;28;20030;-71
2023/08/23 17:03:53;;;;;;;1.90;0.50;;;;;;;36.68;22.11;100476.97;10420039;28;20080;-70
2023/08/23 17:08:55;;;;;;;2.10;0.47;;;;;;;36.62;22.38;100478.34;10425560;28;20068;-72
2023/08/23 17:13:56;;;;;;;0.90;0.47;;;;;;;36.29;22.95;100474.44;10420898;28;20241;-70
2023/08/23 17:18:58;;;;;;;0.82;0.55;;;;;;;35.96;23.69;100465.25;10423156;28;20253;-72
2023/08/23 17:24:02;;;;;;;1.77;0.50;;;;;;;35.79;23.98;100469.06;10402736;28;20037;-71
2023/08/23 17:29:03;;;;;;;1.50;0.50;;;;;;;35.50;24.00;100470.75;10422914;28;20073;-72
2023/08/23 17:34:05;;;;;;;2.25;0.50;;;;;;;34.56;25.41;100461.44;10436596;28;20029;-69
2023/08/23 17:39:18;;;;;;;2.85;0.45;;;;;;;34.01;25.33;100465.06;10438402;28;20037;-73
2023/08/23 17:44:39;;;;;;;1.00;0.50;;;;;;;33.54;26.21;100465.72;10381435;28;20022;-70
2023/08/23 17:49:54;;;;;;;2.63;0.43;;;;;;;32.86;27.02;100473.66;10373404;28;20034;-72
2023/08/23 17:55:07;;;;;;;2.55;0.50;;;;;;;32.42;27.44;100476.22;10364422;28;20062;-74
2023/08/23 18:00:09;;;;;;;4.47;0.40;;;;;;;31.92;28.70;100476.41;10379858;28;20069;-73
2023/08/23 18:05:17;;;;;;;1.92;0.50;;;;;;;31.57;29.50;100476.13;10395103;28;20044;-71
2023/08/23 18:10:58;;;;;;;2.28;0.50;;;;;;;30.97;30.04;100479.16;10414359;28;20025;-70
2023/08/23 18:16:23;;;;;;;1.55;0.50;;;;;;;30.60;30.59;100492.88;10403824;23;20521;-66
2023/08/23 18:21:24;;;;;;;3.40;0.70;;;;;;;30.28;31.81;100488.19;10366392;28;21210;-68
2023/08/23 18:26:30;;;;;;;1.40;0.55;;;;;;;30.09;32.57;100491.00;10383856;28;20516;-65
2023/08/23 18:31:31;;;;;;;2.38;0.70;;;;;;;29.88;33.26;100498.03;10361920;28;20053;-64
2023/08/23 18:36:33;;;;;;;2.25;1.10;;;;;;;29.56;33.64;100503.22;10383992;28;21867;-65
2023/08/23 18:41:34;;;;;;;4.10;1.50;;;;;;;29.33;34.27;100504.09;10385261;28;20136;-68
2023/08/23 18:46:36;;;;;;;2.45;1.45;;;;;;;28.98;34.92;100512.53;10390190;28;20049;-67
2023/08/23 18:51:37;;;;;;;7.70;3.20;;;;;;;28.61;36.43;100511.28;10393438;28;20041;-66
2023/08/23 18:56:39;;;;;;;8.07;3.95;;;;;;;28.38;36.39;100510.13;10351381;28;20045;-68
2023/08/23 19:01:41;;;;;;;3.03;1.08;;;;;;;28.17;36.56;100514.19;10351186;28;20046;-66
2023/08/23 19:06:43;;;;;;;2.67;1.00;;;;;;;27.85;37.35;100510.00;10376063;28;20049;-66
2023/08/23 19:11:44;;;;;;;2.70;0.68;;;;;;;27.64;37.31;100515.66;10397580;28;20033;-64
2023/08/23 19:16:46;;;;;;;1.08;0.50;;;;;;;27.44;37.66;100529.59;10396184;28;20362;-65
2023/08/23 19:21:48;;;;;;;5.13;0.70;;;;;;;27.17;38.08;100541.00;10388735;28;20049;-69
2023/08/23 19:26:50;;;;;;;3.05;0.80;;;;;;;27.10;38.60;100535.78;10398265;28;20041;-70
2023/08/23 19:47:43;;;;;;;3.15;0.75;;;;;;;26.46;41.39;100551.91;10397217;23;20074;-92
2023/08/23 19:53:01;;;;;;;4.32;0.90;;;;;;;26.22;41.64;100550.81;10377536;28;20053;-93
2023/08/23 19:58:21;;;;;;;3.63;0.88;;;;;;;26.02;42.93;100554.41;10383555;28;20140;-92
2023/08/23 20:03:32;;;;;;;3.67;0.80;;;;;;;25.89;43.04;100537.28;10352749;28;20061;-92
2023/08/23 20:08:40;;;;;;;2.75;0.68;;;;;;;25.78;43.67;100548.56;10362797;28;20041;-93
2023/08/23 20:13:46;;;;;;;4.03;0.65;;;;;;;25.59;43.99;100548.22;10337071;28;20046;-92
2023/08/23 20:18:49;;;;;;;5.55;0.80;;;;;;;25.45;44.84;100543.22;10360691;28;20046;-93
2023/08/23 20:23:51;;;;;;;4.40;0.80;;;;;;;25.33;44.68;100539.88;10371278;28;20054;-93
2023/08/23 20:29:04;;;;;;;2.50;0.80;;;;;;;25.24;45.61;100533.28;10357553;28;20056;-92
2023/08/23 20:34:06;;;;;;;2.58;1.20;;;;;;;25.17;45.28;100538.16;10354825;28;20057;-93
2023/08/23 20:39:08;;;;;;;2.70;1.08;;;;;;;24.96;46.39;100529.81;10328580;28;20097;-93
2023/08/23 20:44:11;;;;;;;3.35;1.10;;;;;;;24.82;46.31;100526.72;10351772;28;20053;-93
2023/08/23 20:49:15;;;;;;;1.85;1.00;;;;;;;24.70;46.88;100528.81;10334237;28;20042;-93
2023/08/23 20:54:17;;;;;;;3.67;0.75;;;;;;;24.48;48.22;100534.44;10367768;23;20062;-68
2023/08/23 20:59:19;;;;;;;5.30;1.10;;;;;;;24.30;48.20;100532.94;10390511;28;20042;-69
2023/08/23 21:04:20;;;;;;;3.67;0.90;;;;;;;24.18;48.66;100537.78;10392719;28;20046;-72
2023/08/23 21:09:22;;;;;;;2.53;0.90;;;;;;;24.10;48.84;100528.91;10388277;28;20361;-71
2023/08/23 21:14:24;;;;;;;5.00;0.90;;;;;;;24.07;49.28;100534.09;10387709;28;20052;-71
2023/08/23 21:19:25;;;;;;;4.70;0.70;;;;;;;24.01;48.94;100537.91;10394092;28;20361;-68
2023/08/23 21:24:26;;;;;;;2.80;0.73;;;;;;;23.86;49.22;100533.09;10389674;28;20056;-71
2023/08/23 21:29:28;;;;;;;3.55;0.75;;;;;;;23.81;48.94;100522.88;10376006;28;20294;-71
2023/08/23 21:34:29;;;;;;;3.45;0.70;;;;;;;23.71;48.88;100523.59;10364754;28;20354;-71
2023/08/23 21:39:31;;;;;;;3.47;0.90;;;;;;;23.62;49.16;100527.03;10391117;28;20043;-70
2023/08/23 21:44:33;;;;;;;3.45;0.70;;;;;;;23.44;49.79;100520.84;10374636;28;20046;-71
2023/08/23 21:49:34;;;;;;;1.15;0.75;;;;;;;23.43;49.81;100534.81;10380425;28;20046;-69
2023/08/23 21:54:36;;;;;;;2.58;0.60;;;;;;;23.42;49.82;100544.13;10373602;28;20296;-73
2023/08/23 21:59:37;;;;;;;3.65;0.93;;;;;;;23.36;50.35;100535.84;10361622;28;20289;-71
2023/08/23 22:04:39;;;;;;;4.25;0.80;;;;;;;23.30;50.87;100534.13;10365183;28;20042;-73
2023/08/23 22:09:40;;;;;;;2.92;0.85;;;;;;;23.27;51.08;100531.06;10360538;28;20338;-72
2023/08/23 22:14:41;;;;;;;5.60;0.65;;;;;;;23.13;51.41;100527.88;10364079;28;20050;-74
2023/08/23 22:19:44;;;;;;;3.17;1.08;;;;;;;23.09;51.88;100530.31;10358130;28;20054;-76
2023/08/23 22:24:45;;;;;;;2.90;1.10;;;;;;;23.02;52.13;100524.16;10374853;28;20447;-72
2023/08/23 22:29:47;;;;;;;1.90;0.80;;;;;;;22.90;52.59;100526.19;10378753;28;20084;-76
2023/08/23 22:34:48;;;;;;;1.20;0.70;;;;;;;22.52;53.48;100519.63;10374476;28;20310;-73
2023/08/23 22:39:49;;;;;;;2.55;1.00;;;;;;;22.40;53.41;100516.16;10357223;28;20053;-73
2023/08/23 22:44:51;;;;;;;5.20;0.90;;;;;;;22.24;53.43;100520.53;10375277;28;20445;-75
2023/08/23 22:49:53;;;;;;;2.90;0.80;;;;;;;22.21;53.36;100521.00;10373698;28;20459;-74
2023/08/23 22:54:54;;;;;;;1.88;0.50;;;;;;;22.10;53.34;100525.50;10373143;28;20057;-73
2023/08/23 22:59:55;;;;;;;3.70;1.10;;;;;;;22.09;53.14;100527.38;10374835;28;20052;-74
2023/08/23 23:04:57;;;;;;;1.92;0.70;;;;;;;22.11;53.26;100527.97;10372751;28;20057;-75
2023/08/23 23:09:59;;;;;;;3.92;0.85;;;;;;;22.16;53.13;100514.38;10353745;28;20057;-75
2023/08/23 23:15:03;;;;;;;2.92;0.70;;;;;;;22.15;52.80;100509.97;10357537;28;20250;-74
2023/08/23 23:20:15;;;;;;;4.00;1.00;;;;;;;22.07;53.68;100509.56;10342131;28;20116;-74
2023/08/23 23:25:17;;;;;;;1.55;0.73;;;;;;;21.97;53.81;100505.56;10375194;28;20140;-73